Saturday, October 20, 2018, 10:16 PM EDT
Back to Local

KISP, Islip Long Island Mac Art

Location: Ronkonkoma, NY, United States Lat: 40.8
Local Time: 10:16 PM EDT ( 2:16 GMT) Lon: -73.1
Time Zone: US/Eastern Elev: 98 ft

Show me the last for .
Show Decoded

2018-10-20 21:56 METAR KISP 210156Z 26003KT 10SM BKN070 BKN150 BKN250 11/09 A2961 RMK AO2 SLP027
                 T01060089 =
2018-10-20 20:56 METAR KISP 210056Z 24004KT 10SM FEW070 FEW150 FEW250 10/08 A2961 RMK AO2 SLP026
                 T01000083 =
2018-10-20 19:56 METAR KISP 202356Z 24004KT 10SM FEW040 FEW250 11/09 A2961 RMK AO2 SLP026
                 T01060089 10183 20106 51004 =
2018-10-20 18:56 METAR KISP 202256Z 23006KT 10SM FEW040 FEW250 12/09 A2961 RMK AO2 SLP026
                 T01170089 =
2018-10-20 17:56 METAR KISP 202156Z 23005KT 10SM FEW040 FEW075 SCT250 14/07 A2961 RMK AO2 SLP025
                 T01440072 =
2018-10-20 16:56 METAR KISP 202056Z 28009KT 10SM FEW040 SCT250 17/07 A2960 RMK AO2 SLP021
                 T01720067 56022 =
2018-10-20 15:56 METAR KISP 201956Z 26008KT 10SM SCT041 BKN250 17/08 A2961 RMK AO2 SLP027
                 T01720083 =
2018-10-20 14:56 METAR KISP 201856Z 25012KT 10SM SCT040 BKN250 17/09 A2964 RMK AO2 SLP037
                 T01720094 =
2018-10-20 13:56 METAR KISP 201756Z 27012KT 10SM SCT026 BKN034 BKN250 17/10 A2966 RMK AO2 SLP043
                 T01670100 10172 20139 58019 =
2018-10-20 12:56 METAR KISP 201656Z 27011KT 10SM BKN027 OVC034 16/10 A2969 RMK AO2 SLP053
                 T01560100 =
2018-10-20 11:56 METAR KISP 201556Z 27011KT 10SM BKN023 OVC070 16/11 A2970 RMK AO2 SLP057
                 T01560111 =
2018-10-20 10:56 METAR KISP 201456Z 24012G19KT 10SM BKN020 OVC070 16/12 A2972 RMK AO2 SLP063
                 T01560117 58011 =
2018-10-20 09:56 METAR KISP 201356Z 25013G19KT 10SM FEW013 FEW035 BKN055 OVC250 16/12 A2974 RMK
                 AO2 SLP070 T01560117 =
2018-10-20 08:56 METAR KISP 201256Z 25010KT 10SM FEW020 OVC035 14/12 A2976 RMK AO2 SLP076
                 T01390122 =
2018-10-20 07:56 METAR KISP 201156Z 23013KT 10SM FEW020 OVC055 14/12 A2975 RMK AO2 SLP074 60008
                 70008 T01390122 10156 20128 55013 =
2018-10-20 06:56 METAR KISP 201056Z 22010KT 10SM SCT020 OVC065 13/12 A2975 RMK AO2 RAE20 SLP073
                 P0001 T01330122 =
2018-10-20 05:56 METAR KISP 200956Z 21010G18KT 9SM -RA FEW040 SCT080 OVC095 13/12 A2977 RMK AO2
                 RAB0857 SLP079 P0005 T01280117 =
2018-10-20 04:56 METAR KISP 200856Z AUTO 23010KT 10SM OVC085 13/11 A2979 RMK AO2 RAE49 SLP087
                 P0001 60002 T01280111 56026 =
2018-10-20 03:56 METAR KISP 200756Z AUTO 25009KT 10SM -RA BKN080 OVC090 13/11 A2982 RMK AO2 RAB14
                 SLP096 P0001 T01330106 =
2018-10-20 02:56 METAR KISP 200656Z AUTO 22013G20KT 10SM BKN110 16/09 A2983 RMK AO2 SLP102
                 T01560089 =
2018-10-20 01:56 METAR KISP 200556Z AUTO 22017G21KT 10SM SCT110 16/08 A2987 RMK AO2 SLP113
                 T01560083 10156 20133 57026 =
2018-10-20 00:56 METAR KISP 200456Z AUTO 23014KT 10SM CLR 15/08 A2989 RMK AO2 SLP122 T01500083
                 401560006 =
2018-10-19 23:56 METAR KISP 200356Z 22019G24KT 10SM BKN130 OVC170 15/08 A2992 RMK AO2 SLP130 LAST
                 T01500083 =
2018-10-19 22:56 METAR KISP 200256Z 22012KT 10SM BKN130 OVC200 15/08 A2994 RMK AO2 SLP139
                 T01500083 58031 =

Support USWX by starting your Amazon purchase here.